sensor_id;sensor_type;location;lat;lon;timestamp;P1;durP1;ratioP1;P2;durP2;ratioP2
2225;SDS011;1119;48.288;8.726;2023-11-19T00:02:07;20.60;;;4.20;;
2225;SDS011;1119;48.288;8.726;2023-11-19T00:04:36;20.50;;;3.97;;
2225;SDS011;1119;48.288;8.726;2023-11-19T00:07:04;20.60;;;4.67;;
2225;SDS011;1119;48.288;8.726;2023-11-19T00:09:32;20.60;;;4.40;;
2225;SDS011;1119;48.288;8.726;2023-11-19T00:12:02;20.63;;;4.10;;
2225;SDS011;1119;48.288;8.726;2023-11-19T00:14:31;20.57;;;4.10;;
2225;SDS011;1119;48.288;8.726;2023-11-19T00:16:59;20.80;;;5.13;;
2225;SDS011;1119;48.288;8.726;2023-11-19T00:19:27;20.57;;;4.03;;
2225;SDS011;1119;48.288;8.726;2023-11-19T00:21:54;20.70;;;4.47;;
2225;SDS011;1119;48.288;8.726;2023-11-19T00:24:22;20.50;;;4.20;;
2225;SDS011;1119;48.288;8.726;2023-11-19T00:26:52;20.57;;;3.77;;
2225;SDS011;1119;48.288;8.726;2023-11-19T00:29:19;20.47;;;3.77;;
2225;SDS011;1119;48.288;8.726;2023-11-19T00:31:46;20.70;;;4.50;;
2225;SDS011;1119;48.288;8.726;2023-11-19T00:34:15;20.80;;;4.63;;
2225;SDS011;1119;48.288;8.726;2023-11-19T00:36:47;20.80;;;4.60;;
2225;SDS011;1119;48.288;8.726;2023-11-19T00:39:14;20.80;;;5.03;;
2225;SDS011;1119;48.288;8.726;2023-11-19T00:41:43;21.00;;;5.57;;
2225;SDS011;1119;48.288;8.726;2023-11-19T00:44:11;20.47;;;3.90;;
2225;SDS011;1119;48.288;8.726;2023-11-19T00:46:39;20.70;;;4.40;;
2225;SDS011;1119;48.288;8.726;2023-11-19T00:49:06;20.70;;;4.77;;
2225;SDS011;1119;48.288;8.726;2023-11-19T00:51:35;20.60;;;4.30;;
2225;SDS011;1119;48.288;8.726;2023-11-19T00:54:03;20.67;;;4.60;;
2225;SDS011;1119;48.288;8.726;2023-11-19T00:56:30;20.83;;;5.10;;
2225;SDS011;1119;48.288;8.726;2023-11-19T00:58:58;20.90;;;5.63;;
2225;SDS011;1119;48.288;8.726;2023-11-19T01:01:25;20.70;;;4.47;;
2225;SDS011;1119;48.288;8.726;2023-11-19T01:03:53;20.90;;;5.47;;
2225;SDS011;1119;48.288;8.726;2023-11-19T01:06:28;20.60;;;4.50;;
2225;SDS011;1119;48.288;8.726;2023-11-19T01:08:58;20.90;;;5.67;;
2225;SDS011;1119;48.288;8.726;2023-11-19T01:11:26;20.77;;;4.60;;
2225;SDS011;1119;48.288;8.726;2023-11-19T01:13:53;20.57;;;4.47;;
2225;SDS011;1119;48.288;8.726;2023-11-19T01:16:21;20.70;;;4.70;;
2225;SDS011;1119;48.288;8.726;2023-11-19T01:18:48;20.80;;;5.03;;
2225;SDS011;1119;48.288;8.726;2023-11-19T01:21:16;20.80;;;4.80;;
2225;SDS011;1119;48.288;8.726;2023-11-19T01:23:43;20.70;;;4.60;;
2225;SDS011;1119;48.288;8.726;2023-11-19T01:26:12;20.87;;;5.30;;
2225;SDS011;1119;48.288;8.726;2023-11-19T01:28:40;21.00;;;5.53;;
2225;SDS011;1119;48.288;8.726;2023-11-19T01:31:10;20.90;;;5.27;;
2225;SDS011;1119;48.288;8.726;2023-11-19T01:33:38;20.80;;;5.13;;
2225;SDS011;1119;48.288;8.726;2023-11-19T01:36:07;20.83;;;5.17;;
2225;SDS011;1119;48.288;8.726;2023-11-19T01:38:35;21.00;;;5.70;;
2225;SDS011;1119;48.288;8.726;2023-11-19T01:41:03;20.83;;;5.17;;
2225;SDS011;1119;48.288;8.726;2023-11-19T01:43:32;20.83;;;4.97;;
2225;SDS011;1119;48.288;8.726;2023-11-19T01:45:59;20.80;;;5.00;;
2225;SDS011;1119;48.288;8.726;2023-11-19T01:48:27;21.57;;;7.63;;
2225;SDS011;1119;48.288;8.726;2023-11-19T01:50:55;20.87;;;5.70;;
2225;SDS011;1119;48.288;8.726;2023-11-19T01:53:23;21.00;;;5.80;;
2225;SDS011;1119;48.288;8.726;2023-11-19T01:55:51;21.00;;;5.90;;
2225;SDS011;1119;48.288;8.726;2023-11-19T01:58:19;20.90;;;5.47;;
2225;SDS011;1119;48.288;8.726;2023-11-19T02:00:48;21.20;;;6.47;;
2225;SDS011;1119;48.288;8.726;2023-11-19T02:03:15;20.90;;;5.50;;
2225;SDS011;1119;48.288;8.726;2023-11-19T02:05:45;21.10;;;6.03;;
2225;SDS011;1119;48.288;8.726;2023-11-19T02:08:16;21.10;;;6.07;;
2225;SDS011;1119;48.288;8.726;2023-11-19T02:10:44;21.17;;;6.60;;
2225;SDS011;1119;48.288;8.726;2023-11-19T02:13:12;21.27;;;6.70;;
2225;SDS011;1119;48.288;8.726;2023-11-19T02:15:41;21.00;;;5.80;;
2225;SDS011;1119;48.288;8.726;2023-11-19T02:18:20;21.20;;;6.33;;
2225;SDS011;1119;48.288;8.726;2023-11-19T02:20:49;21.13;;;6.40;;
2225;SDS011;1119;48.288;8.726;2023-11-19T02:23:17;20.80;;;5.27;;
2225;SDS011;1119;48.288;8.726;2023-11-19T02:25:47;21.13;;;6.30;;
2225;SDS011;1119;48.288;8.726;2023-11-19T02:28:27;21.07;;;5.90;;
2225;SDS011;1119;48.288;8.726;2023-11-19T02:30:54;21.10;;;6.33;;
2225;SDS011;1119;48.288;8.726;2023-11-19T02:33:22;21.00;;;5.87;;
2225;SDS011;1119;48.288;8.726;2023-11-19T02:35:50;21.17;;;6.20;;
2225;SDS011;1119;48.288;8.726;2023-11-19T02:38:17;21.00;;;5.57;;
2225;SDS011;1119;48.288;8.726;2023-11-19T02:40:45;21.07;;;5.70;;
2225;SDS011;1119;48.288;8.726;2023-11-19T02:43:13;20.90;;;5.47;;
2225;SDS011;1119;48.288;8.726;2023-11-19T02:48:51;21.17;;;6.13;;
2225;SDS011;1119;48.288;8.726;2023-11-19T02:51:18;21.07;;;6.27;;
2225;SDS011;1119;48.288;8.726;2023-11-19T02:53:45;21.20;;;6.23;;
2225;SDS011;1119;48.288;8.726;2023-11-19T02:56:13;21.17;;;6.50;;
2225;SDS011;1119;48.288;8.726;2023-11-19T02:58:45;21.20;;;6.67;;
2225;SDS011;1119;48.288;8.726;2023-11-19T03:01:20;21.30;;;6.87;;
2225;SDS011;1119;48.288;8.726;2023-11-19T03:03:56;21.50;;;7.30;;
2225;SDS011;1119;48.288;8.726;2023-11-19T03:06:24;21.33;;;7.70;;
2225;SDS011;1119;48.288;8.726;2023-11-19T03:08:52;21.50;;;7.70;;
2225;SDS011;1119;48.288;8.726;2023-11-19T03:11:20;21.40;;;7.50;;
2225;SDS011;1119;48.288;8.726;2023-11-19T03:13:48;21.10;;;6.40;;
2225;SDS011;1119;48.288;8.726;2023-11-19T03:16:15;21.13;;;6.37;;
2225;SDS011;1119;48.288;8.726;2023-11-19T03:18:43;21.40;;;7.33;;
2225;SDS011;1119;48.288;8.726;2023-11-19T03:21:11;21.20;;;6.47;;
2225;SDS011;1119;48.288;8.726;2023-11-19T03:23:39;21.20;;;6.67;;
2225;SDS011;1119;48.288;8.726;2023-11-19T03:26:06;21.10;;;6.50;;
2225;SDS011;1119;48.288;8.726;2023-11-19T03:28:34;21.47;;;7.17;;
2225;SDS011;1119;48.288;8.726;2023-11-19T03:31:04;21.17;;;6.67;;
2225;SDS011;1119;48.288;8.726;2023-11-19T03:33:34;21.40;;;7.03;;
2225;SDS011;1119;48.288;8.726;2023-11-19T03:36:03;21.37;;;7.20;;
2225;SDS011;1119;48.288;8.726;2023-11-19T03:38:33;21.33;;;7.20;;
2225;SDS011;1119;48.288;8.726;2023-11-19T03:41:09;21.27;;;7.30;;
2225;SDS011;1119;48.288;8.726;2023-11-19T03:43:38;21.30;;;7.20;;
2225;SDS011;1119;48.288;8.726;2023-11-19T03:46:15;21.73;;;8.57;;
2225;SDS011;1119;48.288;8.726;2023-11-19T03:48:44;21.40;;;7.27;;
2225;SDS011;1119;48.288;8.726;2023-11-19T03:51:13;21.50;;;7.10;;
2225;SDS011;1119;48.288;8.726;2023-11-19T03:53:42;21.00;;;6.20;;
2225;SDS011;1119;48.288;8.726;2023-11-19T03:56:10;21.60;;;7.97;;
2225;SDS011;1119;48.288;8.726;2023-11-19T03:58:37;21.47;;;7.00;;
2225;SDS011;1119;48.288;8.726;2023-11-19T04:01:05;21.20;;;6.17;;
2225;SDS011;1119;48.288;8.726;2023-11-19T04:03:37;21.10;;;6.20;;
2225;SDS011;1119;48.288;8.726;2023-11-19T04:06:05;21.13;;;5.37;;
2225;SDS011;1119;48.288;8.726;2023-11-19T04:08:33;21.80;;;8.67;;
2225;SDS011;1119;48.288;8.726;2023-11-19T04:11:04;21.87;;;8.90;;
2225;SDS011;1119;48.288;8.726;2023-11-19T04:13:32;21.60;;;7.63;;
2225;SDS011;1119;48.288;8.726;2023-11-19T04:15:59;21.30;;;6.50;;
2225;SDS011;1119;48.288;8.726;2023-11-19T04:18:27;21.67;;;8.60;;
2225;SDS011;1119;48.288;8.726;2023-11-19T04:20:54;21.67;;;8.13;;
2225;SDS011;1119;48.288;8.726;2023-11-19T04:23:21;21.83;;;8.80;;
2225;SDS011;1119;48.288;8.726;2023-11-19T04:25:50;21.67;;;8.43;;
2225;SDS011;1119;48.288;8.726;2023-11-19T04:28:18;21.80;;;9.20;;
2225;SDS011;1119;48.288;8.726;2023-11-19T04:30:46;21.87;;;9.03;;
2225;SDS011;1119;48.288;8.726;2023-11-19T04:33:13;21.70;;;8.40;;
2225;SDS011;1119;48.288;8.726;2023-11-19T04:35:41;21.60;;;8.17;;
2225;SDS011;1119;48.288;8.726;2023-11-19T04:38:08;21.17;;;5.97;;
2225;SDS011;1119;48.288;8.726;2023-11-19T04:40:35;21.33;;;6.50;;
2225;SDS011;1119;48.288;8.726;2023-11-19T04:43:03;21.20;;;6.37;;
2225;SDS011;1119;48.288;8.726;2023-11-19T04:45:32;21.10;;;5.93;;
2225;SDS011;1119;48.288;8.726;2023-11-19T04:47:59;21.50;;;8.00;;
2225;SDS011;1119;48.288;8.726;2023-11-19T04:50:26;21.50;;;7.40;;
2225;SDS011;1119;48.288;8.726;2023-11-19T04:52:54;21.30;;;6.63;;
2225;SDS011;1119;48.288;8.726;2023-11-19T04:55:22;20.80;;;4.53;;
2225;SDS011;1119;48.288;8.726;2023-11-19T04:57:49;20.77;;;4.50;;
2225;SDS011;1119;48.288;8.726;2023-11-19T05:00:16;20.87;;;4.87;;
2225;SDS011;1119;48.288;8.726;2023-11-19T05:02:45;21.40;;;6.67;;
2225;SDS011;1119;48.288;8.726;2023-11-19T05:05:12;21.30;;;6.67;;
2225;SDS011;1119;48.288;8.726;2023-11-19T05:07:42;21.30;;;6.70;;
2225;SDS011;1119;48.288;8.726;2023-11-19T05:10:09;21.00;;;5.00;;
2225;SDS011;1119;48.288;8.726;2023-11-19T05:12:36;20.80;;;4.80;;
2225;SDS011;1119;48.288;8.726;2023-11-19T05:15:04;21.00;;;5.40;;
2225;SDS011;1119;48.288;8.726;2023-11-19T05:17:33;20.83;;;4.90;;
2225;SDS011;1119;48.288;8.726;2023-11-19T05:20:04;20.80;;;4.93;;
2225;SDS011;1119;48.288;8.726;2023-11-19T05:22:38;21.20;;;6.10;;
2225;SDS011;1119;48.288;8.726;2023-11-19T05:25:07;21.00;;;6.37;;
2225;SDS011;1119;48.288;8.726;2023-11-19T05:27:36;20.90;;;5.90;;
2225;SDS011;1119;48.288;8.726;2023-11-19T05:30:04;21.10;;;5.70;;
2225;SDS011;1119;48.288;8.726;2023-11-19T05:32:34;20.90;;;5.40;;
2225;SDS011;1119;48.288;8.726;2023-11-19T05:35:01;21.10;;;6.10;;
2225;SDS011;1119;48.288;8.726;2023-11-19T05:37:30;21.20;;;6.47;;
2225;SDS011;1119;48.288;8.726;2023-11-19T05:40:00;21.43;;;7.40;;
2225;SDS011;1119;48.288;8.726;2023-11-19T05:42:29;21.37;;;6.80;;
2225;SDS011;1119;48.288;8.726;2023-11-19T05:44:56;21.30;;;7.03;;
2225;SDS011;1119;48.288;8.726;2023-11-19T05:47:23;21.50;;;7.97;;
2225;SDS011;1119;48.288;8.726;2023-11-19T05:49:50;21.53;;;8.13;;
2225;SDS011;1119;48.288;8.726;2023-11-19T05:52:19;22.10;;;10.27;;
2225;SDS011;1119;48.288;8.726;2023-11-19T05:54:48;22.30;;;10.83;;
2225;SDS011;1119;48.288;8.726;2023-11-19T05:57:17;22.20;;;10.57;;
2225;SDS011;1119;48.288;8.726;2023-11-19T05:59:49;22.07;;;10.40;;
2225;SDS011;1119;48.288;8.726;2023-11-19T06:02:17;22.10;;;10.40;;
2225;SDS011;1119;48.288;8.726;2023-11-19T06:04:44;22.00;;;9.43;;
2225;SDS011;1119;48.288;8.726;2023-11-19T06:07:13;21.77;;;9.07;;
2225;SDS011;1119;48.288;8.726;2023-11-19T06:09:42;21.87;;;9.27;;
2225;SDS011;1119;48.288;8.726;2023-11-19T06:12:09;21.30;;;7.13;;
2225;SDS011;1119;48.288;8.726;2023-11-19T06:14:37;21.23;;;6.60;;
2225;SDS011;1119;48.288;8.726;2023-11-19T06:17:04;21.43;;;7.23;;
2225;SDS011;1119;48.288;8.726;2023-11-19T06:19:33;21.30;;;7.07;;
2225;SDS011;1119;48.288;8.726;2023-11-19T06:22:01;20.80;;;5.30;;
2225;SDS011;1119;48.288;8.726;2023-11-19T06:24:28;21.10;;;6.10;;
2225;SDS011;1119;48.288;8.726;2023-11-19T06:26:57;21.27;;;6.87;;
2225;SDS011;1119;48.288;8.726;2023-11-19T06:29:25;20.93;;;6.07;;
2225;SDS011;1119;48.288;8.726;2023-11-19T06:31:53;21.33;;;6.77;;
2225;SDS011;1119;48.288;8.726;2023-11-19T06:34:20;21.03;;;6.00;;
2225;SDS011;1119;48.288;8.726;2023-11-19T06:36:47;21.10;;;6.00;;
2225;SDS011;1119;48.288;8.726;2023-11-19T06:39:15;21.10;;;6.70;;
2225;SDS011;1119;48.288;8.726;2023-11-19T06:41:46;21.37;;;6.97;;
2225;SDS011;1119;48.288;8.726;2023-11-19T06:44:15;21.43;;;6.77;;
2225;SDS011;1119;48.288;8.726;2023-11-19T06:46:43;20.97;;;5.37;;
2225;SDS011;1119;48.288;8.726;2023-11-19T06:49:10;21.00;;;5.23;;
2225;SDS011;1119;48.288;8.726;2023-11-19T06:51:41;21.10;;;6.13;;
2225;SDS011;1119;48.288;8.726;2023-11-19T06:54:11;21.10;;;5.60;;
2225;SDS011;1119;48.288;8.726;2023-11-19T06:56:38;21.00;;;5.57;;
2225;SDS011;1119;48.288;8.726;2023-11-19T06:59:07;21.03;;;5.50;;
2225;SDS011;1119;48.288;8.726;2023-11-19T07:01:36;20.80;;;4.80;;
2225;SDS011;1119;48.288;8.726;2023-11-19T07:04:04;20.87;;;4.77;;
2225;SDS011;1119;48.288;8.726;2023-11-19T07:06:34;20.70;;;4.70;;
2225;SDS011;1119;48.288;8.726;2023-11-19T07:09:02;20.73;;;4.47;;
2225;SDS011;1119;48.288;8.726;2023-11-19T07:11:35;20.70;;;4.57;;
2225;SDS011;1119;48.288;8.726;2023-11-19T07:14:05;21.07;;;5.77;;
2225;SDS011;1119;48.288;8.726;2023-11-19T07:16:33;20.83;;;4.80;;
2225;SDS011;1119;48.288;8.726;2023-11-19T07:19:04;20.80;;;4.83;;
2225;SDS011;1119;48.288;8.726;2023-11-19T07:21:32;20.60;;;4.40;;
2225;SDS011;1119;48.288;8.726;2023-11-19T07:23:59;20.70;;;4.47;;
2225;SDS011;1119;48.288;8.726;2023-11-19T07:26:26;20.90;;;4.93;;
2225;SDS011;1119;48.288;8.726;2023-11-19T07:28:54;20.80;;;5.00;;
2225;SDS011;1119;48.288;8.726;2023-11-19T07:31:22;20.90;;;5.03;;
2225;SDS011;1119;48.288;8.726;2023-11-19T07:33:50;20.77;;;5.30;;
2225;SDS011;1119;48.288;8.726;2023-11-19T07:36:18;20.90;;;5.40;;
2225;SDS011;1119;48.288;8.726;2023-11-19T07:38:46;20.50;;;4.43;;
2225;SDS011;1119;48.288;8.726;2023-11-19T07:41:14;20.70;;;4.63;;
2225;SDS011;1119;48.288;8.726;2023-11-19T07:43:43;20.80;;;4.77;;
2225;SDS011;1119;48.288;8.726;2023-11-19T07:46:12;20.80;;;4.90;;
2225;SDS011;1119;48.288;8.726;2023-11-19T07:48:40;20.80;;;5.10;;
2225;SDS011;1119;48.288;8.726;2023-11-19T07:51:08;20.67;;;4.73;;
2225;SDS011;1119;48.288;8.726;2023-11-19T07:53:39;20.77;;;4.93;;
2225;SDS011;1119;48.288;8.726;2023-11-19T07:56:07;20.70;;;4.13;;
2225;SDS011;1119;48.288;8.726;2023-11-19T07:58:35;20.70;;;4.63;;
2225;SDS011;1119;48.288;8.726;2023-11-19T08:01:03;20.57;;;4.50;;
2225;SDS011;1119;48.288;8.726;2023-11-19T08:03:32;20.70;;;4.77;;
2225;SDS011;1119;48.288;8.726;2023-11-19T08:06:00;20.90;;;5.20;;
2225;SDS011;1119;48.288;8.726;2023-11-19T08:08:27;20.43;;;3.77;;
2225;SDS011;1119;48.288;8.726;2023-11-19T08:10:56;20.57;;;3.70;;
2225;SDS011;1119;48.288;8.726;2023-11-19T08:13:24;20.57;;;3.93;;
2225;SDS011;1119;48.288;8.726;2023-11-19T08:15:52;20.60;;;4.00;;
2225;SDS011;1119;48.288;8.726;2023-11-19T08:18:19;20.50;;;3.67;;
2225;SDS011;1119;48.288;8.726;2023-11-19T08:20:46;20.67;;;4.13;;
2225;SDS011;1119;48.288;8.726;2023-11-19T08:23:18;20.77;;;4.60;;
2225;SDS011;1119;48.288;8.726;2023-11-19T08:25:46;20.73;;;4.27;;
2225;SDS011;1119;48.288;8.726;2023-11-19T08:28:17;20.50;;;3.77;;
2225;SDS011;1119;48.288;8.726;2023-11-19T08:30:44;20.50;;;3.87;;
2225;SDS011;1119;48.288;8.726;2023-11-19T08:33:12;20.57;;;4.00;;
2225;SDS011;1119;48.288;8.726;2023-11-19T08:35:40;20.67;;;4.00;;
2225;SDS011;1119;48.288;8.726;2023-11-19T08:38:08;20.87;;;4.80;;
2225;SDS011;1119;48.288;8.726;2023-11-19T08:40:35;20.50;;;4.00;;
2225;SDS011;1119;48.288;8.726;2023-11-19T08:43:04;20.47;;;3.83;;
2225;SDS011;1119;48.288;8.726;2023-11-19T08:45:33;20.67;;;4.20;;
2225;SDS011;1119;48.288;8.726;2023-11-19T08:48:01;20.53;;;4.10;;
2225;SDS011;1119;48.288;8.726;2023-11-19T08:50:29;20.40;;;4.20;;
2225;SDS011;1119;48.288;8.726;2023-11-19T08:52:56;20.40;;;3.53;;
2225;SDS011;1119;48.288;8.726;2023-11-19T08:55:23;20.67;;;4.20;;
2225;SDS011;1119;48.288;8.726;2023-11-19T08:57:51;20.40;;;4.00;;
2225;SDS011;1119;48.288;8.726;2023-11-19T09:00:19;20.60;;;3.90;;
2225;SDS011;1119;48.288;8.726;2023-11-19T09:02:48;20.50;;;3.73;;
2225;SDS011;1119;48.288;8.726;2023-11-19T09:05:15;20.57;;;3.87;;
2225;SDS011;1119;48.288;8.726;2023-11-19T09:07:43;20.40;;;3.70;;
2225;SDS011;1119;48.288;8.726;2023-11-19T09:10:10;20.40;;;3.57;;
2225;SDS011;1119;48.288;8.726;2023-11-19T09:12:38;20.37;;;3.47;;
2225;SDS011;1119;48.288;8.726;2023-11-19T09:15:05;20.47;;;3.97;;
2225;SDS011;1119;48.288;8.726;2023-11-19T09:17:36;20.40;;;3.33;;
2225;SDS011;1119;48.288;8.726;2023-11-19T09:20:05;20.40;;;3.43;;
2225;SDS011;1119;48.288;8.726;2023-11-19T09:22:37;20.33;;;3.37;;
2225;SDS011;1119;48.288;8.726;2023-11-19T09:25:05;20.27;;;3.20;;
2225;SDS011;1119;48.288;8.726;2023-11-19T09:27:33;20.43;;;3.43;;
2225;SDS011;1119;48.288;8.726;2023-11-19T09:30:00;20.37;;;3.60;;
2225;SDS011;1119;48.288;8.726;2023-11-19T09:32:29;20.27;;;3.10;;
2225;SDS011;1119;48.288;8.726;2023-11-19T09:34:57;20.33;;;3.30;;
2225;SDS011;1119;48.288;8.726;2023-11-19T09:37:25;20.20;;;3.20;;
2225;SDS011;1119;48.288;8.726;2023-11-19T09:39:53;20.10;;;2.63;;
2225;SDS011;1119;48.288;8.726;2023-11-19T09:42:20;20.30;;;2.93;;
2225;SDS011;1119;48.288;8.726;2023-11-19T09:44:52;20.30;;;3.17;;
2225;SDS011;1119;48.288;8.726;2023-11-19T09:47:21;20.20;;;3.13;;
2225;SDS011;1119;48.288;8.726;2023-11-19T09:49:49;20.20;;;2.97;;
2225;SDS011;1119;48.288;8.726;2023-11-19T09:52:17;20.27;;;2.90;;
2225;SDS011;1119;48.288;8.726;2023-11-19T09:54:46;20.10;;;2.63;;
2225;SDS011;1119;48.288;8.726;2023-11-19T09:57:14;20.20;;;2.87;;
2225;SDS011;1119;48.288;8.726;2023-11-19T09:59:43;20.03;;;2.70;;
2225;SDS011;1119;48.288;8.726;2023-11-19T10:02:12;20.20;;;3.07;;
2225;SDS011;1119;48.288;8.726;2023-11-19T10:04:40;20.10;;;2.90;;
2225;SDS011;1119;48.288;8.726;2023-11-19T10:07:12;20.10;;;2.80;;
2225;SDS011;1119;48.288;8.726;2023-11-19T10:09:40;20.07;;;2.87;;
2225;SDS011;1119;48.288;8.726;2023-11-19T10:12:09;20.00;;;2.80;;
2225;SDS011;1119;48.288;8.726;2023-11-19T10:14:36;20.00;;;3.00;;
2225;SDS011;1119;48.288;8.726;2023-11-19T10:17:06;20.27;;;3.20;;
2225;SDS011;1119;48.288;8.726;2023-11-19T10:19:34;20.10;;;2.97;;
2225;SDS011;1119;48.288;8.726;2023-11-19T10:22:03;20.17;;;2.93;;
2225;SDS011;1119;48.288;8.726;2023-11-19T10:24:31;20.20;;;2.90;;
2225;SDS011;1119;48.288;8.726;2023-11-19T10:26:59;20.10;;;2.70;;
2225;SDS011;1119;48.288;8.726;2023-11-19T10:29:30;20.13;;;2.77;;
2225;SDS011;1119;48.288;8.726;2023-11-19T10:31:58;20.00;;;2.80;;
2225;SDS011;1119;48.288;8.726;2023-11-19T10:34:26;20.20;;;2.90;;
2225;SDS011;1119;48.288;8.726;2023-11-19T10:36:55;20.27;;;2.90;;
2225;SDS011;1119;48.288;8.726;2023-11-19T10:39:22;20.10;;;2.47;;
2225;SDS011;1119;48.288;8.726;2023-11-19T10:41:50;20.17;;;2.77;;
2225;SDS011;1119;48.288;8.726;2023-11-19T10:44:34;20.17;;;2.53;;
2225;SDS011;1119;48.288;8.726;2023-11-19T10:47:05;20.10;;;2.70;;
2225;SDS011;1119;48.288;8.726;2023-11-19T10:49:35;20.03;;;2.60;;
2225;SDS011;1119;48.288;8.726;2023-11-19T10:52:03;20.30;;;3.03;;
2225;SDS011;1119;48.288;8.726;2023-11-19T10:54:33;20.20;;;2.83;;
2225;SDS011;1119;48.288;8.726;2023-11-19T10:57:01;20.30;;;3.07;;
2225;SDS011;1119;48.288;8.726;2023-11-19T10:59:31;20.23;;;2.60;;
2225;SDS011;1119;48.288;8.726;2023-11-19T11:02:00;20.17;;;2.90;;
2225;SDS011;1119;48.288;8.726;2023-11-19T11:04:33;20.00;;;2.70;;
2225;SDS011;1119;48.288;8.726;2023-11-19T11:07:07;20.10;;;2.97;;
2225;SDS011;1119;48.288;8.726;2023-11-19T11:09:36;20.13;;;2.70;;
2225;SDS011;1119;48.288;8.726;2023-11-19T11:12:04;20.17;;;2.73;;
2225;SDS011;1119;48.288;8.726;2023-11-19T11:14:34;19.97;;;2.43;;
2225;SDS011;1119;48.288;8.726;2023-11-19T11:17:07;20.03;;;2.63;;
2225;SDS011;1119;48.288;8.726;2023-11-19T11:19:36;20.07;;;2.40;;
2225;SDS011;1119;48.288;8.726;2023-11-19T11:22:04;19.93;;;2.63;;
2225;SDS011;1119;48.288;8.726;2023-11-19T11:24:37;20.03;;;2.40;;
2225;SDS011;1119;48.288;8.726;2023-11-19T11:27:33;20.10;;;2.73;;
2225;SDS011;1119;48.288;8.726;2023-11-19T11:30:20;20.00;;;2.57;;
2225;SDS011;1119;48.288;8.726;2023-11-19T11:33:04;20.00;;;2.50;;
2225;SDS011;1119;48.288;8.726;2023-11-19T11:35:55;20.07;;;2.43;;
2225;SDS011;1119;48.288;8.726;2023-11-19T11:38:35;20.00;;;2.60;;
2225;SDS011;1119;48.288;8.726;2023-11-19T11:41:17;20.07;;;2.40;;
2225;SDS011;1119;48.288;8.726;2023-11-19T11:43:47;20.10;;;2.80;;
2225;SDS011;1119;48.288;8.726;2023-11-19T11:49:28;20.07;;;2.70;;
2225;SDS011;1119;48.288;8.726;2023-11-19T11:52:03;20.13;;;2.87;;
2225;SDS011;1119;48.288;8.726;2023-11-19T11:54:31;20.00;;;2.50;;
2225;SDS011;1119;48.288;8.726;2023-11-19T11:57:09;20.10;;;2.67;;
2225;SDS011;1119;48.288;8.726;2023-11-19T11:59:47;20.20;;;2.90;;
2225;SDS011;1119;48.288;8.726;2023-11-19T12:02:16;20.17;;;2.90;;
2225;SDS011;1119;48.288;8.726;2023-11-19T12:04:48;20.00;;;2.37;;
2225;SDS011;1119;48.288;8.726;2023-11-19T12:07:17;19.87;;;2.20;;
2225;SDS011;1119;48.288;8.726;2023-11-19T12:09:47;19.97;;;2.60;;
2225;SDS011;1119;48.288;8.726;2023-11-19T12:12:19;20.00;;;2.50;;
2225;SDS011;1119;48.288;8.726;2023-11-19T12:15:07;20.13;;;2.83;;
2225;SDS011;1119;48.288;8.726;2023-11-19T12:17:41;19.93;;;2.60;;
2225;SDS011;1119;48.288;8.726;2023-11-19T12:20:19;20.00;;;2.70;;
2225;SDS011;1119;48.288;8.726;2023-11-19T12:22:48;20.17;;;2.93;;
2225;SDS011;1119;48.288;8.726;2023-11-19T12:25:16;20.03;;;2.67;;
2225;SDS011;1119;48.288;8.726;2023-11-19T12:27:45;19.90;;;2.43;;
2225;SDS011;1119;48.288;8.726;2023-11-19T12:30:16;20.13;;;2.93;;
2225;SDS011;1119;48.288;8.726;2023-11-19T12:32:48;20.10;;;2.83;;
2225;SDS011;1119;48.288;8.726;2023-11-19T12:35:15;20.00;;;2.63;;
2225;SDS011;1119;48.288;8.726;2023-11-19T12:37:44;20.10;;;2.60;;
2225;SDS011;1119;48.288;8.726;2023-11-19T12:40:16;19.90;;;2.27;;
2225;SDS011;1119;48.288;8.726;2023-11-19T12:42:45;19.93;;;2.70;;
2225;SDS011;1119;48.288;8.726;2023-11-19T12:45:13;20.07;;;2.90;;
2225;SDS011;1119;48.288;8.726;2023-11-19T12:47:42;20.10;;;2.80;;
2225;SDS011;1119;48.288;8.726;2023-11-19T12:50:12;20.10;;;2.90;;
2225;SDS011;1119;48.288;8.726;2023-11-19T12:52:40;20.10;;;2.73;;
2225;SDS011;1119;48.288;8.726;2023-11-19T12:57:54;19.93;;;2.67;;
2225;SDS011;1119;48.288;8.726;2023-11-19T13:00:23;20.00;;;2.73;;
2225;SDS011;1119;48.288;8.726;2023-11-19T13:02:52;19.97;;;2.40;;
2225;SDS011;1119;48.288;8.726;2023-11-19T13:05:24;20.00;;;2.50;;
2225;SDS011;1119;48.288;8.726;2023-11-19T13:07:59;20.10;;;2.70;;
2225;SDS011;1119;48.288;8.726;2023-11-19T13:10:29;20.00;;;2.60;;
2225;SDS011;1119;48.288;8.726;2023-11-19T13:13:01;19.90;;;2.70;;
2225;SDS011;1119;48.288;8.726;2023-11-19T13:15:30;20.00;;;2.33;;
2225;SDS011;1119;48.288;8.726;2023-11-19T13:17:57;20.03;;;2.70;;
2225;SDS011;1119;48.288;8.726;2023-11-19T13:20:25;20.00;;;2.53;;
2225;SDS011;1119;48.288;8.726;2023-11-19T13:22:53;20.07;;;2.73;;
2225;SDS011;1119;48.288;8.726;2023-11-19T13:25:25;20.10;;;2.67;;
2225;SDS011;1119;48.288;8.726;2023-11-19T13:27:54;19.97;;;2.23;;
2225;SDS011;1119;48.288;8.726;2023-11-19T13:30:22;20.00;;;2.63;;
2225;SDS011;1119;48.288;8.726;2023-11-19T13:32:50;20.00;;;2.30;;
2225;SDS011;1119;48.288;8.726;2023-11-19T13:35:20;20.07;;;2.77;;
2225;SDS011;1119;48.288;8.726;2023-11-19T13:37:48;20.10;;;2.80;;
2225;SDS011;1119;48.288;8.726;2023-11-19T13:40:17;20.03;;;2.80;;
2225;SDS011;1119;48.288;8.726;2023-11-19T13:42:44;20.03;;;2.70;;
2225;SDS011;1119;48.288;8.726;2023-11-19T13:45:13;20.17;;;3.10;;
2225;SDS011;1119;48.288;8.726;2023-11-19T13:47:43;20.17;;;2.83;;
2225;SDS011;1119;48.288;8.726;2023-11-19T13:50:12;20.10;;;2.63;;
2225;SDS011;1119;48.288;8.726;2023-11-19T13:52:42;20.23;;;2.77;;
2225;SDS011;1119;48.288;8.726;2023-11-19T13:55:12;20.03;;;2.50;;
2225;SDS011;1119;48.288;8.726;2023-11-19T13:57:40;20.20;;;2.50;;
2225;SDS011;1119;48.288;8.726;2023-11-19T14:00:09;20.03;;;2.37;;
2225;SDS011;1119;48.288;8.726;2023-11-19T14:02:39;20.17;;;2.70;;
2225;SDS011;1119;48.288;8.726;2023-11-19T14:05:07;20.17;;;2.67;;
2225;SDS011;1119;48.288;8.726;2023-11-19T14:07:36;20.20;;;2.80;;
2225;SDS011;1119;48.288;8.726;2023-11-19T14:10:03;20.17;;;2.47;;
2225;SDS011;1119;48.288;8.726;2023-11-19T14:12:33;20.20;;;2.53;;
2225;SDS011;1119;48.288;8.726;2023-11-19T14:15:02;20.37;;;3.27;;
2225;SDS011;1119;48.288;8.726;2023-11-19T14:17:31;20.20;;;2.70;;
2225;SDS011;1119;48.288;8.726;2023-11-19T14:20:00;20.23;;;2.80;;
2225;SDS011;1119;48.288;8.726;2023-11-19T14:22:28;20.20;;;2.70;;
2225;SDS011;1119;48.288;8.726;2023-11-19T14:24:55;20.30;;;2.77;;
2225;SDS011;1119;48.288;8.726;2023-11-19T14:27:24;20.30;;;2.70;;
2225;SDS011;1119;48.288;8.726;2023-11-19T14:29:51;20.17;;;2.63;;
2225;SDS011;1119;48.288;8.726;2023-11-19T14:32:19;20.33;;;2.83;;
2225;SDS011;1119;48.288;8.726;2023-11-19T14:34:46;20.20;;;2.27;;
2225;SDS011;1119;48.288;8.726;2023-11-19T14:37:15;20.10;;;2.20;;
2225;SDS011;1119;48.288;8.726;2023-11-19T14:39:42;20.23;;;2.67;;
2225;SDS011;1119;48.288;8.726;2023-11-19T14:42:09;20.20;;;2.63;;
2225;SDS011;1119;48.288;8.726;2023-11-19T14:44:37;20.17;;;2.50;;
2225;SDS011;1119;48.288;8.726;2023-11-19T14:50:13;20.23;;;2.90;;
2225;SDS011;1119;48.288;8.726;2023-11-19T14:52:42;20.27;;;2.47;;
2225;SDS011;1119;48.288;8.726;2023-11-19T14:55:09;20.30;;;2.87;;
2225;SDS011;1119;48.288;8.726;2023-11-19T14:57:36;20.33;;;2.80;;
2225;SDS011;1119;48.288;8.726;2023-11-19T15:03:14;20.37;;;2.53;;
2225;SDS011;1119;48.288;8.726;2023-11-19T15:05:44;20.43;;;2.93;;
2225;SDS011;1119;48.288;8.726;2023-11-19T15:08:13;20.30;;;2.63;;
2225;SDS011;1119;48.288;8.726;2023-11-19T15:10:42;20.30;;;2.57;;
2225;SDS011;1119;48.288;8.726;2023-11-19T15:13:10;20.37;;;2.40;;
2225;SDS011;1119;48.288;8.726;2023-11-19T15:15:37;20.30;;;2.60;;
2225;SDS011;1119;48.288;8.726;2023-11-19T15:18:05;20.47;;;2.70;;
2225;SDS011;1119;48.288;8.726;2023-11-19T15:20:32;20.43;;;2.67;;
2225;SDS011;1119;48.288;8.726;2023-11-19T15:22:59;20.60;;;2.90;;
2225;SDS011;1119;48.288;8.726;2023-11-19T15:25:28;20.43;;;2.90;;
2225;SDS011;1119;48.288;8.726;2023-11-19T15:27:55;20.40;;;2.80;;